Airfield :







YOU CAN JOIN US ON...

 
LOGIN :

Register | Disclaimer

   EN    FR    IT 

 









Legend :    VFR   Marginal VFR   IFR   Intensive IFR   Very Intensive IFR
Visi :
Ceiling :
>= 8 km
>= 3000ft
5 to 8 km
1000 to 3000 ft
1500m to 5 km
500 to 1000 ft
800 to 1500m
200 to 500 ft
< 800m
< 200 ft
Symbols :   Thunderstorms  Fog  Heavy snow  Heavy precipitations  Wind > 20 kt







- Airport Elevation : 787 ft
- IATA code : RUT


KRUT - Rutland - Southern Vermont Regional

CURRENT METAR :
  • 192304Z AUTO 26026G35KT 2 1/2SM +TSRA BR FEW009 BKN050 OVC075 20/18 A2992 RMK AO2 PK WND 25035/2302 LTG DSNT ALQDS PRESRR P0028 $

EXPIRED METARs :
  • 192250Z AUTO 29003KT 10SM SCT055 BKN075 OVC100 22/18 A2984 RMK AO2 LTG DSNT ALQDS TSE08B24E39RAB13E37 P0000 $
  • 192235Z AUTO 24004KT 3SM VCTS -RA FEW050 SCT070 OVC110 23/18 A2983 RMK AO2 LTG DSNT ALQDS TSE08B24RAB13 P0000 $
  • 192219Z AUTO 17007KT 10SM -RA FEW050 SCT075 OVC110 23/19 A2983 RMK AO2 LTG DSNT ALQDS TSE08RAB13 P0000 $
  • 192156Z AUTO 15006KT 10SM TS SCT075 BKN110 24/19 A2984 RMK AO2 LTG DSNT N AND S TSB53RAB23E38 SLP094 P0000 T02440189 $
  • 192056Z AUTO 21009KT 10SM OVC110 27/17 A2983 RMK AO2 LTG DSNT NW SLP091 T02720172 56028 $

TAF KRUT
Valid from the 19 at 21:00 until the 20 at 18:00 UTC


192104Z 1921/2018 20009KT P6SM -SHRA VCTS FEW050CB OVC100
TEMPO 1921/2001 4SM -TSRA BKN025CB
FM200400 17007KT P6SM VCSH BKN050
FM200900 20007KT P6SM VCSH BKN018
FM201700 22010KT 6SM -SHRA BKN040
KZBW FIR / North America



MET'MAP, your aeronautical weather chart ! - Copyright ORBIFLY December 2007 - Disclaimer

ORBIFLY MET'MAP TEAM :

Programming & Development : Alexandra Zaïnal
Concept & Development : Baudouin d'Aumeries
Co-Development & Prog : Marc-Olivier Méhu
Technical & hardware support : Manuel Goepfert

Contact : metmap@orbifly.com




SOURCES & CREDITS :

   NOAA